Time;durP1;ratioP1;P1;durP2;ratioP2;P2;SDS_P1;SDS_P2;PMS_P1;PMS_P2;Temp;Humidity;BMP_temperature;BMP_pressure;BME280_temperature;BME280_humidity;BME280_pressure;Samples;Min_cycle;Max_cycle;Signal;HPM_P1;HPM_P2
2022/10/28 00:00:55;;;;;;;17.08;7.55;;;15.60;99.90;;;;;;5113023;28;20512;-67
2022/10/28 00:03:21;;;;;;;16.27;7.47;;;15.50;99.90;;;;;;5112285;28;20051;-67
2022/10/28 00:05:46;;;;;;;18.73;8.40;;;15.50;99.90;;;;;;5113368;28;20032;-67
2022/10/28 00:08:12;;;;;;;15.80;8.52;;;15.50;99.90;;;;;;5113217;28;20602;-67
2022/10/28 00:10:38;;;;;;;13.95;7.80;;;15.50;99.90;;;;;;5112900;28;20403;-67
2022/10/28 00:13:03;;;;;;;19.02;8.98;;;15.50;99.90;;;;;;5095937;28;20122;-67
2022/10/28 00:15:29;;;;;;;13.20;7.65;;;15.50;99.90;;;;;;5114176;28;20031;-67
2022/10/28 00:17:54;;;;;;;15.05;7.68;;;15.50;99.90;;;;;;5113127;28;20043;-67
2022/10/28 00:20:20;;;;;;;15.88;7.97;;;15.50;99.90;;;;;;5113026;28;20496;-67
2022/10/28 00:22:46;;;;;;;12.20;9.02;;;15.50;99.90;;;;;;5112674;28;20463;-67
2022/10/28 00:25:11;;;;;;;15.93;8.23;;;15.50;99.90;;;;;;5112729;28;20040;-69
2022/10/28 00:27:37;;;;;;;14.10;8.27;;;15.50;99.90;;;;;;5112695;28;20096;-67
2022/10/28 00:30:03;;;;;;;14.15;7.78;;;15.50;99.90;;;;;;5114110;28;20112;-67
2022/10/28 00:32:29;;;;;;;20.92;8.48;;;15.50;99.90;;;;;;5113772;28;20051;-67
2022/10/28 00:34:55;;;;;;;16.48;8.60;;;15.50;99.90;;;;;;5112827;28;20122;-67
2022/10/28 00:37:21;;;;;;;19.00;8.80;;;15.50;99.90;;;;;;5112515;28;20579;-67
2022/10/28 00:39:46;;;;;;;19.00;9.18;;;15.50;99.90;;;;;;5112443;28;20044;-67
2022/10/28 00:42:16;;;;;;;19.98;8.55;;;15.50;99.90;;;;;;5112333;28;20040;-67
2022/10/28 00:44:59;;;;;;;16.92;8.80;;;15.50;99.90;;;;;;5112758;28;20031;-67
2022/10/28 00:47:50;;;;;;;19.83;8.73;;;15.50;99.90;;;;;;5112458;28;20036;-67
2022/10/28 00:50:26;;;;;;;16.63;9.10;;;15.50;99.90;;;;;;5112554;28;20043;-67
2022/10/28 00:53:00;;;;;;;18.65;9.45;;;15.50;99.90;;;;;;5112389;28;20051;-67
2022/10/28 00:55:26;;;;;;;16.65;9.60;;;15.50;99.90;;;;;;5113885;28;20043;-67
2022/10/28 00:57:56;;;;;;;17.85;9.65;;;15.50;99.90;;;;;;5112303;28;20039;-67
2022/10/28 01:00:24;;;;;;;20.00;9.70;;;15.50;99.90;;;;;;5112460;28;20052;-67
2022/10/28 01:02:49;;;;;;;20.50;9.93;;;15.50;99.90;;;;;;5112191;28;20043;-67
2022/10/28 01:05:37;;;;;;;12.82;8.98;;;15.50;99.90;;;;;;5112212;28;20040;-67
2022/10/28 01:08:04;;;;;;;18.48;9.98;;;15.60;99.90;;;;;;5112253;28;20552;-67
2022/10/28 01:10:57;;;;;;;19.98;9.38;;;15.50;99.90;;;;;;5112360;28;20509;-67
2022/10/28 01:13:53;;;;;;;18.50;10.45;;;15.50;99.90;;;;;;5112193;28;20035;-67
2022/10/28 01:16:33;;;;;;;17.38;9.68;;;15.40;99.90;;;;;;5116003;28;20124;-67
2022/10/28 01:19:14;;;;;;;19.17;10.57;;;15.50;99.90;;;;;;5116279;28;20049;-67
2022/10/28 01:21:53;;;;;;;15.20;10.27;;;15.50;99.90;;;;;;5116249;28;20043;-67
2022/10/28 01:24:46;;;;;;;18.40;10.82;;;15.50;99.90;;;;;;5116211;28;20044;-67
2022/10/28 01:27:27;;;;;;;;;;;15.50;99.90;;;;;;5118168;28;20039;-67
2022/10/28 01:30:18;;;;;;;21.48;10.10;;;15.30;99.90;;;;;;5116325;28;19981;-67
2022/10/28 01:32:57;;;;;;;18.58;10.30;;;15.40;99.90;;;;;;5116278;28;20503;-67
2022/10/28 01:35:35;;;;;;;21.15;11.23;;;15.40;99.90;;;;;;5116314;28;20058;-67
2022/10/28 01:38:15;;;;;;;20.50;10.73;;;15.40;99.90;;;;;;5115989;28;20047;-67
2022/10/28 01:40:49;;;;;;;24.00;10.88;;;15.40;99.90;;;;;;5115689;28;20071;-67
2022/10/28 01:43:33;;;;;;;26.63;10.80;;;15.40;99.90;;;;;;5115885;28;20044;-67
2022/10/28 01:46:15;;;;;;;22.20;12.02;;;15.40;99.90;;;;;;5115853;28;20082;-67
2022/10/28 01:48:46;;;;;;;22.02;10.98;;;15.30;99.90;;;;;;5115713;28;20412;-67
2022/10/28 01:51:32;;;;;;;17.55;11.35;;;15.40;99.90;;;;;;5115961;28;20048;-67
2022/10/28 01:54:02;;;;;;;19.63;10.65;;;15.40;99.90;;;;;;5115664;28;20051;-67
2022/10/28 01:56:33;;;;;;;21.05;11.55;;;15.30;99.90;;;;;;5115568;28;20093;-67
2022/10/28 01:59:02;;;;;;;19.92;11.85;;;15.30;99.90;;;;;;5115477;28;20408;-67
2022/10/28 02:01:29;;;;;;;19.10;11.07;;;15.30;99.90;;;;;;5115490;28;20055;-67
2022/10/28 02:03:55;;;;;;;21.20;12.10;;;15.30;99.90;;;;;;5115370;28;20120;-67
2022/10/28 02:06:24;;;;;;;20.70;11.25;;;15.30;99.90;;;;;;5115389;28;20040;-67
2022/10/28 02:09:13;;;;;;;23.38;11.85;;;15.30;99.90;;;;;;5115278;28;20043;-67
2022/10/28 02:11:49;;;;;;;22.98;12.57;;;15.30;99.90;;;;;;5115381;28;20111;-67
2022/10/28 02:14:52;;;;;;;27.85;12.45;;;15.30;99.90;;;;;;5115213;28;20043;-67
2022/10/28 02:17:52;;;;;;;22.83;11.88;;;15.30;99.90;;;;;;5115444;28;20070;-67
2022/10/28 02:20:26;;;;;;;26.15;12.90;;;15.30;99.90;;;;;;5115317;28;20083;-67
2022/10/28 02:22:56;;;;;;;26.83;12.88;;;15.30;99.90;;;;;;5115055;28;20051;-67
2022/10/28 02:25:33;;;;;;;23.73;11.75;;;15.30;99.90;;;;;;5115067;28;20516;-67
2022/10/28 02:28:06;;;;;;;23.42;12.02;;;15.30;99.90;;;;;;5114648;28;20084;-67
2022/10/28 02:30:56;;;;;;;;;;;15.30;99.90;;;;;;5117212;28;20042;-67
2022/10/28 02:33:27;;;;;;;21.55;11.57;;;15.20;99.90;;;;;;5114926;28;19959;-67
2022/10/28 02:36:10;;;;;;;20.40;12.88;;;15.20;99.90;;;;;;5114905;28;20044;-67
2022/10/28 02:38:46;;;;;;;23.15;12.15;;;15.20;99.90;;;;;;5114727;28;20044;-67
2022/10/28 02:41:17;;;;;;;24.75;12.27;;;15.20;99.90;;;;;;5114783;28;20051;-67
2022/10/28 02:43:46;;;;;;;21.73;12.13;;;15.20;99.90;;;;;;5114643;28;20051;-67
2022/10/28 02:46:13;;;;;;;23.40;12.07;;;15.20;99.90;;;;;;5116135;28;20047;-67
2022/10/28 02:49:03;;;;;;;25.85;13.18;;;15.20;99.90;;;;;;5114772;28;20081;-67
2022/10/28 02:51:34;;;;;;;21.52;12.73;;;15.20;99.90;;;;;;5114636;28;20515;-67
2022/10/28 02:54:07;;;;;;;26.63;12.88;;;15.10;99.90;;;;;;5114577;28;20074;-67
2022/10/28 02:56:38;;;;;;;;;;;15.20;99.90;;;;;;5114906;28;20048;-67
2022/10/28 02:59:11;;;;;;;19.67;11.48;;;15.10;99.90;;;;;;5114513;28;19961;-67
2022/10/28 03:01:37;;;;;;;;;;;15.10;99.90;;;;;;5116707;28;20031;-67
2022/10/28 03:04:03;;;;;;;23.60;12.57;;;15.00;99.90;;;;;;5114234;28;20376;-67
2022/10/28 03:06:29;;;;;;;19.25;12.63;;;15.00;99.90;;;;;;5114553;28;20063;-67
2022/10/28 03:08:55;;;;;;;23.45;12.80;;;15.10;99.90;;;;;;5114160;28;20430;-67
2022/10/28 03:11:20;;;;;;;19.92;13.10;;;15.10;99.90;;;;;;5114157;28;20147;-67
2022/10/28 03:13:46;;;;;;;23.85;12.63;;;15.10;99.90;;;;;;5114092;28;20073;-67
2022/10/28 03:16:12;;;;;;;27.35;13.25;;;15.10;99.90;;;;;;5114340;28;20035;-67
2022/10/28 03:18:37;;;;;;;24.08;11.88;;;15.10;99.90;;;;;;5113899;28;20496;-67
2022/10/28 03:21:03;;;;;;;23.95;12.50;;;15.10;99.90;;;;;;5113948;28;20051;-67
2022/10/28 03:23:28;;;;;;;19.48;12.85;;;15.10;99.90;;;;;;5113786;28;20044;-67
2022/10/28 03:25:54;;;;;;;19.40;12.02;;;15.10;99.90;;;;;;5114104;28;20051;-67
2022/10/28 03:28:19;;;;;;;23.40;12.57;;;15.10;99.90;;;;;;5115067;28;20122;-67
2022/10/28 03:30:45;;;;;;;19.65;11.88;;;15.10;99.90;;;;;;5113962;28;20039;-67
2022/10/28 03:33:10;;;;;;;26.35;11.88;;;15.10;99.90;;;;;;5113684;28;20432;-67
2022/10/28 03:35:36;;;;;;;25.85;12.25;;;15.10;99.90;;;;;;5113661;28;20051;-67
2022/10/28 03:38:02;;;;;;;21.67;11.75;;;15.10;99.90;;;;;;5113883;28;20118;-67
2022/10/28 03:40:27;;;;;;;19.95;12.25;;;15.00;99.90;;;;;;5113646;28;20480;-67
2022/10/28 03:42:53;;;;;;;22.33;11.70;;;15.10;99.90;;;;;;5113450;28;20047;-67
2022/10/28 03:45:18;;;;;;;22.58;12.30;;;15.10;99.90;;;;;;5113442;28;20157;-67
2022/10/28 03:47:44;;;;;;;24.08;12.13;;;15.10;99.90;;;;;;5113431;28;20035;-67
2022/10/28 03:50:09;;;;;;;21.58;12.43;;;15.10;99.90;;;;;;5114847;28;20141;-67
2022/10/28 03:52:35;;;;;;;25.38;12.27;;;15.10;99.90;;;;;;5113317;28;20043;-67
2022/10/28 03:55:01;;;;;;;17.67;11.05;;;15.10;99.90;;;;;;5113302;28;20043;-67
2022/10/28 03:57:30;;;;;;;22.58;11.73;;;15.00;99.90;;;;;;5113245;28;20128;-67
2022/10/28 03:59:55;;;;;;;18.95;11.50;;;15.00;99.90;;;;;;5113144;28;20043;-67
2022/10/28 04:02:21;;;;;;;21.23;11.38;;;15.00;99.90;;;;;;5113004;28;20048;-67
2022/10/28 04:04:47;;;;;;;22.75;11.82;;;15.00;99.90;;;;;;5113071;28;20042;-67
2022/10/28 04:07:12;;;;;;;30.77;11.93;;;15.00;99.90;;;;;;5113038;28;20050;-67
2022/10/28 04:09:38;;;;;;;22.15;11.98;;;15.00;99.90;;;;;;5112934;28;20035;-67
2022/10/28 04:12:05;;;;;;;18.60;11.45;;;15.00;99.90;;;;;;5112934;28;20118;-67
2022/10/28 04:14:30;;;;;;;23.90;12.13;;;15.00;99.90;;;;;;5112934;28;20028;-67
2022/10/28 04:16:56;;;;;;;17.85;11.38;;;15.00;99.90;;;;;;5112918;28;20084;-67
2022/10/28 04:19:22;;;;;;;22.88;10.65;;;15.00;99.90;;;;;;5112769;28;20040;-67
2022/10/28 04:21:47;;;;;;;26.48;11.52;;;15.00;99.90;;;;;;5112779;28;20039;-67
2022/10/28 04:24:13;;;;;;;19.08;11.23;;;15.00;99.90;;;;;;5112664;28;20082;-67
2022/10/28 04:26:38;;;;;;;21.63;10.75;;;15.00;99.90;;;;;;5095773;28;20035;-67
2022/10/28 04:29:04;;;;;;;21.45;11.48;;;15.00;99.90;;;;;;5112591;28;20031;-67
2022/10/28 04:31:29;;;;;;;15.25;10.77;;;15.00;99.90;;;;;;5112658;28;20043;-67
2022/10/28 04:33:55;;;;;;;21.85;11.48;;;15.00;99.90;;;;;;5112609;28;20039;-67
2022/10/28 04:36:20;;;;;;;23.02;11.93;;;15.00;99.90;;;;;;5112574;28;20047;-67
2022/10/28 04:38:46;;;;;;;24.52;11.98;;;15.00;99.90;;;;;;5095532;28;20044;-67
2022/10/28 04:41:13;;;;;;;23.30;11.15;;;15.00;99.90;;;;;;5112385;28;20054;-67
2022/10/28 04:43:39;;;;;;;23.98;11.90;;;15.00;99.90;;;;;;5112423;28;20065;-67
2022/10/28 04:46:04;;;;;;;23.55;10.88;;;14.90;99.90;;;;;;5112748;28;20043;-67
2022/10/28 04:48:32;;;;;;;19.80;11.27;;;14.90;99.90;;;;;;5112740;28;20032;-67
2022/10/28 04:50:57;;;;;;;20.92;11.57;;;14.90;99.90;;;;;;5111938;28;20039;-67
2022/10/28 04:53:23;;;;;;;24.42;11.60;;;14.90;99.90;;;;;;5114038;28;20043;-67
2022/10/28 04:55:48;;;;;;;20.75;11.38;;;14.90;99.90;;;;;;5112650;28;20045;-67
2022/10/28 04:58:14;;;;;;;21.50;10.98;;;14.90;99.90;;;;;;5112345;28;20498;-67
2022/10/28 05:00:39;;;;;;;22.65;11.13;;;14.90;99.90;;;;;;5112228;28;20096;-67
2022/10/28 05:03:05;;;;;;;17.83;10.95;;;14.90;99.90;;;;;;5112133;28;20072;-67
2022/10/28 05:05:31;;;;;;;23.60;11.13;;;14.90;99.90;;;;;;5113763;28;20043;-67
2022/10/28 05:07:56;;;;;;;21.65;11.52;;;14.80;99.90;;;;;;5112259;28;20035;-67
2022/10/28 05:10:22;;;;;;;22.00;11.23;;;14.80;99.90;;;;;;5112402;28;20038;-67
2022/10/28 05:12:48;;;;;;;27.20;12.05;;;14.80;99.90;;;;;;5095101;28;20430;-67
2022/10/28 05:15:14;;;;;;;17.10;11.15;;;14.80;99.90;;;;;;5112151;28;20046;-67
2022/10/28 05:17:43;;;;;;;22.48;10.35;;;14.80;99.90;;;;;;5112240;28;20035;-67
2022/10/28 05:20:10;;;;;;;19.88;11.07;;;14.80;99.90;;;;;;5112085;28;20040;-67
2022/10/28 05:22:36;;;;;;;18.50;10.90;;;14.70;99.90;;;;;;5111989;28;20115;-67
2022/10/28 05:25:03;;;;;;;23.58;10.75;;;14.70;99.90;;;;;;5095381;28;20039;-67
2022/10/28 05:27:28;;;;;;;19.80;10.75;;;14.70;99.90;;;;;;5112853;28;20036;-67
2022/10/28 05:29:54;;;;;;;25.33;11.20;;;14.70;99.90;;;;;;5111910;28;20039;-67
2022/10/28 05:32:20;;;;;;;20.42;10.60;;;14.70;99.90;;;;;;5111983;28;20129;-67
2022/10/28 05:34:45;;;;;;;22.98;11.60;;;14.60;99.90;;;;;;5111975;28;20035;-67
2022/10/28 05:37:11;;;;;;;15.43;10.10;;;14.60;99.90;;;;;;5113439;28;20043;-67
2022/10/28 05:39:36;;;;;;;21.20;10.43;;;14.60;99.90;;;;;;5112605;28;20096;-67
2022/10/28 05:42:02;;;;;;;20.45;10.60;;;14.60;99.90;;;;;;5111640;28;20542;-67
2022/10/28 05:44:27;;;;;;;21.58;10.32;;;14.60;99.90;;;;;;5112213;28;20035;-67
2022/10/28 05:46:54;;;;;;;19.42;9.93;;;14.60;99.90;;;;;;5111856;28;20492;-67
2022/10/28 05:49:19;;;;;;;17.85;10.00;;;14.60;99.90;;;;;;5111775;28;20042;-67
2022/10/28 05:51:48;;;;;;;23.95;10.65;;;14.60;99.90;;;;;;5111816;28;20039;-67
2022/10/28 05:54:13;;;;;;;19.95;10.05;;;14.60;99.90;;;;;;5111749;28;20527;-67
2022/10/28 05:56:39;;;;;;;20.60;10.23;;;14.60;99.90;;;;;;5111755;28;20089;-67
2022/10/28 05:59:04;;;;;;;21.08;9.77;;;14.60;99.90;;;;;;5112321;28;20104;-67
2022/10/28 06:01:30;;;;;;;19.05;9.95;;;14.60;99.90;;;;;;5112648;28;20108;-67
2022/10/28 06:03:55;;;;;;;13.90;8.15;;;14.60;99.90;;;;;;5115373;28;20048;-67
2022/10/28 06:06:21;;;;;;;19.75;9.55;;;14.60;99.90;;;;;;5115671;28;20091;-67
2022/10/28 06:08:46;;;;;;;18.42;10.32;;;14.60;99.90;;;;;;5115315;28;20466;-67
2022/10/28 06:11:12;;;;;;;22.15;9.00;;;14.50;99.90;;;;;;5115584;28;20039;-67
2022/10/28 06:13:37;;;;;;;19.90;9.23;;;14.60;99.90;;;;;;5115198;28;20046;-67
2022/10/28 06:16:03;;;;;;;18.90;9.93;;;14.50;99.90;;;;;;5115234;28;20096;-67
2022/10/28 06:18:29;;;;;;;24.65;9.73;;;14.50;99.90;;;;;;5115192;28;20035;-67
2022/10/28 06:20:58;;;;;;;24.25;9.88;;;14.50;99.90;;;;;;5115071;28;20119;-67
2022/10/28 06:23:25;;;;;;;20.73;9.85;;;14.50;99.90;;;;;;5115068;28;20071;-67
2022/10/28 06:25:59;;;;;;;19.60;9.75;;;14.50;99.90;;;;;;5115271;28;20488;-67
2022/10/28 06:28:25;;;;;;;18.90;9.20;;;14.50;99.90;;;;;;5115241;28;20043;-67
2022/10/28 06:30:50;;;;;;;20.25;9.82;;;14.50;99.90;;;;;;5114903;28;20076;-67
2022/10/28 06:33:16;;;;;;;19.02;9.50;;;14.50;99.90;;;;;;5115127;28;20039;-67
2022/10/28 06:35:42;;;;;;;20.50;8.95;;;14.50;99.90;;;;;;5115069;28;20504;-67
2022/10/28 06:38:08;;;;;;;22.25;9.50;;;14.60;99.90;;;;;;5114741;28;20500;-67
2022/10/28 06:40:34;;;;;;;18.40;9.18;;;14.50;99.90;;;;;;5114744;28;20048;-67
2022/10/28 06:43:03;;;;;;;19.25;9.25;;;14.60;99.90;;;;;;5114665;28;20119;-67
2022/10/28 06:45:33;;;;;;;17.90;9.18;;;14.60;99.90;;;;;;5114899;28;20042;-67
2022/10/28 06:48:01;;;;;;;17.13;8.75;;;14.60;99.90;;;;;;5114847;28;20123;-67
2022/10/28 06:50:28;;;;;;;17.95;9.02;;;14.60;99.90;;;;;;5114493;28;20027;-67
2022/10/28 06:52:57;;;;;;;17.00;8.55;;;14.60;99.90;;;;;;5114493;28;20052;-68
2022/10/28 06:55:24;;;;;;;19.02;7.75;;;14.70;99.90;;;;;;5114482;28;20046;-67
2022/10/28 06:57:50;;;;;;;16.70;8.10;;;14.70;99.90;;;;;;5114439;28;20051;-67
2022/10/28 07:00:16;;;;;;;16.05;8.45;;;14.70;99.90;;;;;;5114328;28;20035;-67
2022/10/28 07:02:42;;;;;;;20.23;8.95;;;14.70;99.90;;;;;;5114311;28;20043;-67
2022/10/28 07:05:07;;;;;;;15.07;8.43;;;14.70;99.90;;;;;;5114290;28;20028;-67
2022/10/28 07:07:37;;;;;;;19.13;8.77;;;14.70;99.90;;;;;;5114257;28;20067;-67
2022/10/28 07:10:04;;;;;;;19.10;8.52;;;14.80;99.90;;;;;;5114359;28;20050;-67
2022/10/28 07:12:30;;;;;;;16.60;8.27;;;14.80;99.90;;;;;;5113913;28;20067;-67
2022/10/28 07:14:55;;;;;;;17.85;8.23;;;14.80;99.90;;;;;;5114051;28;20112;-67
2022/10/28 07:17:21;;;;;;;16.95;8.45;;;14.80;99.90;;;;;;5114033;28;20047;-67
2022/10/28 07:19:46;;;;;;;19.77;8.75;;;14.80;99.90;;;;;;5113942;28;20047;-67
2022/10/28 07:22:12;;;;;;;20.25;8.02;;;14.90;99.90;;;;;;5115699;28;20046;-67
2022/10/28 07:24:37;;;;;;;11.18;7.57;;;14.80;99.90;;;;;;5096958;28;20032;-67
2022/10/28 07:27:03;;;;;;;12.32;8.02;;;14.90;99.90;;;;;;5113870;28;20039;-67
2022/10/28 07:29:28;;;;;;;17.90;7.75;;;14.90;99.90;;;;;;5113761;28;20044;-67
2022/10/28 07:31:54;;;;;;;23.13;8.35;;;14.90;99.90;;;;;;5113771;28;20035;-67
2022/10/28 07:34:20;;;;;;;16.83;7.82;;;15.00;99.90;;;;;;5113684;28;20044;-67
2022/10/28 07:36:53;;;;;;;20.85;8.75;;;15.00;99.90;;;;;;5113741;28;20040;-67
2022/10/28 07:39:20;;;;;;;17.35;8.80;;;15.10;99.90;;;;;;5113709;28;20118;-68
2022/10/28 07:41:46;;;;;;;19.23;8.50;;;15.10;99.90;;;;;;5114704;28;20027;-68
2022/10/28 07:44:11;;;;;;;25.15;7.75;;;15.10;99.90;;;;;;5113417;28;20467;-68
2022/10/28 07:46:37;;;;;;;18.73;8.50;;;15.20;99.90;;;;;;5113720;28;20124;-67
2022/10/28 07:49:03;;;;;;;20.00;7.82;;;15.30;99.90;;;;;;5113380;28;20067;-67
2022/10/28 07:51:28;;;;;;;17.25;8.02;;;15.30;99.90;;;;;;5113354;28;20040;-67
2022/10/28 07:53:55;;;;;;;16.65;8.27;;;15.40;99.90;;;;;;5113573;28;20084;-68
2022/10/28 07:56:21;;;;;;;20.13;8.00;;;15.40;99.90;;;;;;5113286;28;20508;-67
2022/10/28 07:58:47;;;;;;;14.05;7.85;;;15.50;99.90;;;;;;5113091;28;20081;-68
2022/10/28 08:01:15;;;;;;;13.90;7.45;;;15.60;99.90;;;;;;5113413;28;20055;-68
2022/10/28 08:03:41;;;;;;;14.93;7.65;;;15.60;99.90;;;;;;5113100;28;20051;-68
2022/10/28 08:06:18;;;;;;;21.23;8.15;;;15.70;99.90;;;;;;5114807;28;20035;-67
2022/10/28 08:08:45;;;;;;;19.05;7.70;;;15.70;99.90;;;;;;5113227;28;20499;-68
2022/10/28 08:11:17;;;;;;;16.52;7.90;;;15.80;99.90;;;;;;5112937;28;20407;-68
2022/10/28 08:13:44;;;;;;;15.25;7.15;;;15.80;99.90;;;;;;5113032;28;20043;-67
2022/10/28 08:16:10;;;;;;;15.60;7.05;;;15.80;99.90;;;;;;5112917;28;20136;-68
2022/10/28 08:18:36;;;;;;;17.33;7.97;;;15.90;99.90;;;;;;5113065;28;20056;-68
2022/10/28 08:21:04;;;;;;;21.73;8.07;;;15.90;99.90;;;;;;5112816;28;20048;-68
2022/10/28 08:23:30;;;;;;;23.52;7.82;;;16.00;99.90;;;;;;5112742;28;20393;-68
2022/10/28 08:25:56;;;;;;;14.75;7.60;;;16.00;99.90;;;;;;5112198;28;20552;-68
2022/10/28 08:28:22;;;;;;;15.00;7.60;;;16.10;99.90;;;;;;5112909;28;20163;-68
2022/10/28 08:30:49;;;;;;;16.42;7.60;;;16.20;99.90;;;;;;5114543;28;20046;-67
2022/10/28 08:33:15;;;;;;;21.25;8.80;;;16.30;99.90;;;;;;5112783;28;20044;-68
2022/10/28 08:35:41;;;;;;;21.35;8.00;;;16.30;99.90;;;;;;5112692;28;20035;-68
2022/10/28 08:38:07;;;;;;;18.70;7.85;;;16.40;99.90;;;;;;5112959;28;20112;-68
2022/10/28 08:40:53;;;;;;;20.80;7.70;;;16.50;99.90;;;;;;5112251;28;20122;-71
2022/10/28 08:44:06;;;;;;;17.48;7.85;;;16.60;99.90;;;;;;5096484;28;20043;-67
2022/10/28 08:46:36;;;;;;;18.20;7.53;;;16.60;99.90;;;;;;5031039;28;20441;-67
2022/10/28 08:49:06;;;;;;;25.35;7.90;;;16.70;99.90;;;;;;5014576;28;20128;-68
2022/10/28 08:51:46;;;;;;;20.35;8.00;;;16.80;99.90;;;;;;5078845;28;20079;-67
2022/10/28 08:54:16;;;;;;;18.98;7.55;;;16.90;99.90;;;;;;5112492;28;20043;-67
2022/10/28 08:56:47;;;;;;;15.65;6.82;;;17.00;99.90;;;;;;5112308;28;20050;-68
2022/10/28 08:59:18;;;;;;;14.65;7.25;;;17.10;99.90;;;;;;5112276;28;20040;-68
2022/10/28 09:01:55;;;;;;;15.55;7.03;;;17.20;99.90;;;;;;5112626;28;20089;-68
2022/10/28 09:04:37;;;;;;;20.17;6.53;;;17.30;99.90;;;;;;5112208;28;20416;-68
2022/10/28 09:07:04;;;;;;;21.65;6.75;;;17.30;99.90;;;;;;5113573;28;20118;-68
2022/10/28 09:09:30;;;;;;;20.75;6.53;;;17.40;99.90;;;;;;5112177;28;20115;-68
2022/10/28 09:11:59;;;;;;;15.00;6.50;;;17.40;99.90;;;;;;5112219;28;20040;-68
2022/10/28 09:14:43;;;;;;;14.40;6.20;;;17.40;99.90;;;;;;5112215;28;20126;-68
2022/10/28 09:17:54;;;;;;;17.45;6.35;;;17.40;99.90;;;;;;5112158;28;20043;-68
2022/10/28 09:20:30;;;;;;;12.48;6.57;;;17.40;99.90;;;;;;5112115;28;20046;-68
2022/10/28 09:23:07;;;;;;;15.82;6.53;;;17.40;99.90;;;;;;5112309;28;20062;-68
2022/10/28 09:25:47;;;;;;;18.55;6.75;;;17.40;99.90;;;;;;5113648;28;20123;-68
2022/10/28 09:28:41;;;;;;;13.30;5.90;;;17.50;99.90;;;;;;5112086;28;20040;-68
2022/10/28 09:31:13;;;;;;;13.98;6.60;;;17.50;99.90;;;;;;5095324;28;20062;-68
2022/10/28 09:34:10;;;;;;;13.35;6.10;;;17.50;99.90;;;;;;5112026;28;20047;-68
2022/10/28 09:36:41;;;;;;;13.65;6.10;;;17.60;99.90;;;;;;5113965;28;20139;-68
2022/10/28 09:39:16;;;;;;;16.65;5.93;;;17.60;99.90;;;;;;5115891;28;20058;-68
2022/10/28 09:41:44;;;;;;;12.40;5.80;;;17.60;99.90;;;;;;5116135;28;20075;-68
2022/10/28 09:44:39;;;;;;;18.63;6.53;;;17.70;99.90;;;;;;5115789;28;20552;-68
2022/10/28 09:47:23;;;;;;;14.95;5.85;;;17.70;99.90;;;;;;5115833;28;20039;-68
2022/10/28 09:49:53;;;;;;;16.20;6.05;;;17.80;99.90;;;;;;5117250;28;20044;-68
2022/10/28 09:52:34;;;;;;;16.63;5.55;;;17.80;99.90;;;;;;5117239;28;20036;-68
2022/10/28 09:55:12;;;;;;;15.57;6.28;;;17.80;99.90;;;;;;5115690;28;20040;-68
2022/10/28 09:57:38;;;;;;;14.65;5.03;;;17.80;99.90;;;;;;5115932;28;20055;-68
2022/10/28 10:00:04;;;;;;;16.60;5.95;;;17.70;99.90;;;;;;5115535;28;20035;-68
2022/10/28 10:02:31;;;;;;;25.45;7.38;;;17.70;99.90;;;;;;5115741;28;20043;-68
2022/10/28 10:05:00;;;;;;;19.80;5.90;;;17.70;99.90;;;;;;5098755;28;20075;-68
2022/10/28 10:07:37;;;;;;;20.23;5.93;;;17.80;99.90;;;;;;5115417;28;20046;-68
2022/10/28 10:10:25;;;;;;;18.33;5.93;;;17.80;99.90;;;;;;5115588;28;20063;-68
2022/10/28 10:12:54;;;;;;;15.90;6.13;;;17.80;99.90;;;;;;5115646;28;20138;-68
2022/10/28 10:15:30;;;;;;;18.02;7.10;;;17.80;99.90;;;;;;5115191;28;20408;-68
2022/10/28 10:18:00;;;;;;;13.55;5.32;;;17.80;99.90;;;;;;5115511;28;20043;-68
2022/10/28 10:20:26;;;;;;;16.10;6.07;;;17.90;99.90;;;;;;5115047;28;20424;-68
2022/10/28 10:22:52;;;;;;;19.23;6.15;;;18.00;99.90;;;;;;5115295;28;20040;-68
2022/10/28 10:25:17;;;;;;;17.15;6.15;;;18.00;99.90;;;;;;5115092;28;20403;-68
2022/10/28 10:27:58;;;;;;;24.33;6.22;;;18.10;99.90;;;;;;5115303;28;20039;-68
2022/10/28 10:30:48;;;;;;;17.92;6.72;;;18.20;99.90;;;;;;5114897;28;20118;-68
2022/10/28 10:33:38;;;;;;;15.60;6.60;;;18.30;99.90;;;;;;5116483;28;20047;-68
2022/10/28 10:36:10;;;;;;;21.70;5.88;;;18.40;99.90;;;;;;5102761;28;20064;-68
2022/10/28 10:38:37;;;;;;;19.50;5.95;;;18.50;99.90;;;;;;5115080;28;20097;-69
2022/10/28 10:41:03;;;;;;;19.67;5.50;;;18.60;99.90;;;;;;5114919;28;20078;-68
2022/10/28 10:43:31;;;;;;;16.33;5.53;;;18.70;99.90;;;;;;5114851;28;20550;-68
2022/10/28 10:46:01;;;;;;;18.90;6.20;;;18.80;99.90;;;;;;5114727;28;20044;-68
2022/10/28 10:48:31;;;;;;;20.38;6.10;;;18.90;99.90;;;;;;5096923;28;20076;-67
2022/10/28 10:50:57;;;;;;;18.67;6.80;;;19.00;99.90;;;;;;5114512;28;20043;-67
2022/10/28 10:53:29;;;;;;;18.20;6.38;;;19.10;99.90;;;;;;5097546;28;20043;-67
2022/10/28 10:56:03;;;;;;;13.40;5.93;;;19.20;99.90;;;;;;5114778;28;20043;-67
2022/10/28 10:58:45;;;;;;;14.68;5.28;;;19.50;99.90;;;;;;5114498;28;20283;-67
2022/10/28 11:01:17;;;;;;;19.02;6.28;;;19.80;99.90;;;;;;5114578;28;20108;-67
2022/10/28 11:03:54;;;;;;;18.10;6.28;;;19.90;99.90;;;;;;5114396;28;20052;-67
2022/10/28 11:06:25;;;;;;;14.43;6.22;;;19.90;99.90;;;;;;5114365;28;20508;-67
2022/10/28 11:09:01;;;;;;;16.88;6.13;;;19.80;99.90;;;;;;5116060;28;20429;-68
2022/10/28 11:11:39;;;;;;;17.17;5.72;;;19.80;99.90;;;;;;5114262;28;20039;-67
2022/10/28 11:14:08;;;;;;;17.92;5.63;;;20.20;99.90;;;;;;5114419;28;20036;-67
2022/10/28 11:16:48;;;;;;;15.30;6.05;;;21.10;99.90;;;;;;5114198;28;20474;-67
2022/10/28 11:19:31;;;;;;;16.77;5.95;;;21.60;99.90;;;;;;5097180;28;20415;-68
2022/10/28 11:22:34;;;;;;;19.40;6.70;;;21.60;99.90;;;;;;5114463;28;20054;-67
2022/10/28 11:25:18;;;;;;;17.85;5.68;;;22.00;99.90;;;;;;5114043;28;20056;-68
2022/10/28 11:28:10;;;;;;;18.30;5.55;;;22.60;99.90;;;;;;5114209;28;20039;-68
2022/10/28 11:30:47;;;;;;;20.92;5.68;;;23.20;99.90;;;;;;5113811;28;20043;-68
2022/10/28 11:33:18;;;;;;;15.43;5.43;;;23.50;99.90;;;;;;5114059;28;20047;-68
2022/10/28 11:35:56;;;;;;;15.50;5.75;;;23.70;99.90;;;;;;5113755;28;20110;-68
2022/10/28 11:38:30;;;;;;;13.35;4.95;;;23.90;99.90;;;;;;5113675;28;20040;-68
2022/10/28 11:41:12;;;;;;;16.52;5.40;;;23.90;99.90;;;;;;5113543;28;20066;-68
2022/10/28 11:43:47;;;;;;;18.05;6.30;;;23.70;99.90;;;;;;5113615;28;20065;-68
2022/10/28 11:46:23;;;;;;;19.30;5.97;;;23.40;99.90;;;;;;5113470;28;20457;-68
2022/10/28 11:49:17;;;;;;;18.80;5.78;;;23.00;99.90;;;;;;5113399;28;20496;-68
2022/10/28 11:51:49;;;;;;;14.38;5.75;;;23.10;99.90;;;;;;5113630;28;20058;-68
2022/10/28 11:54:41;;;;;;;17.17;6.18;;;23.40;99.90;;;;;;5113583;28;20040;-68
2022/10/28 11:57:16;;;;;;;17.00;5.72;;;23.40;99.90;;;;;;5113585;28;20135;-68
2022/10/28 12:00:13;;;;;;;18.08;5.30;;;23.50;99.90;;;;;;5113508;28;20043;-68
2022/10/28 12:02:57;;;;;;;14.55;5.22;;;23.60;99.90;;;;;;5114359;28;20404;-68
2022/10/28 12:05:57;;;;;;;19.55;5.93;;;23.60;99.90;;;;;;5113139;28;20539;-68
2022/10/28 12:08:45;;;;;;;19.15;5.90;;;23.50;99.90;;;;;;5114968;28;20065;-67
2022/10/28 12:11:23;;;;;;;16.88;4.90;;;23.20;99.90;;;;;;5113062;28;20043;-68
2022/10/28 12:14:18;;;;;;;26.08;6.47;;;22.70;99.90;;;;;;5113295;28;20381;-68
2022/10/28 12:16:50;;;;;;;19.52;6.78;;;22.30;99.90;;;;;;5104221;28;20048;-68
2022/10/28 12:19:31;;;;;;;17.27;5.97;;;21.90;99.90;;;;;;5112877;28;20496;-68
2022/10/28 12:22:16;;;;;;;15.95;5.60;;;21.60;99.90;;;;;;5113158;28;20044;-68
2022/10/28 12:24:44;;;;;;;13.30;5.88;;;21.40;99.90;;;;;;5112868;28;20051;-68
2022/10/28 12:27:21;;;;;;;22.63;7.13;;;21.20;99.90;;;;;;5112813;28;20071;-68
2022/10/28 12:29:55;;;;;;;19.33;6.13;;;21.00;99.90;;;;;;5112699;28;20407;-68
2022/10/28 12:32:26;;;;;;;17.15;5.47;;;20.90;99.90;;;;;;5112810;28;20488;-68
2022/10/28 12:34:56;;;;;;;20.45;6.22;;;20.70;99.90;;;;;;5113046;28;20088;-68
2022/10/28 12:37:26;;;;;;;19.60;6.43;;;20.70;99.90;;;;;;5112665;28;20495;-68
2022/10/28 12:40:10;;;;;;;19.08;6.35;;;20.70;99.90;;;;;;5112591;28;20039;-68
2022/10/28 12:42:59;;;;;;;17.05;6.13;;;20.60;99.90;;;;;;5112649;28;20070;-68
2022/10/28 12:45:25;;;;;;;16.13;5.88;;;20.50;99.90;;;;;;5112502;28;20531;-68
2022/10/28 12:47:57;;;;;;;15.05;5.30;;;20.40;99.90;;;;;;5112743;28;20500;-68
2022/10/28 12:50:38;;;;;;;16.08;5.82;;;20.40;99.90;;;;;;5112788;28;20051;-68
2022/10/28 12:53:04;;;;;;;15.43;5.88;;;20.30;99.90;;;;;;5112481;28;20043;-68
2022/10/28 12:55:38;;;;;;;17.75;6.72;;;20.30;99.90;;;;;;5112644;28;20050;-68
2022/10/28 12:58:26;;;;;;;15.93;6.03;;;20.30;99.90;;;;;;5112602;28;20043;-68